Time,TemperatureF,DewpointF,PressureIn,WindDirection,WindDirectionDegrees,WindSpeedMPH,WindSpeedGustMPH,Humidity,HourlyPrecipIn,Conditions,Clouds,dailyrainin,SoftwareType,DateUTC
2013-06-06 00:00:00,59.5,54.0,29.95,NNW,336,0.0,4.0,82,0.00,,,0.00,Wunderground v.1.15,2013-06-06 07:00:00,
2013-06-06 00:10:00,59.5,54.0,29.95,NNW,336,0.0,2.0,82,0.00,,,0.00,Wunderground v.1.15,2013-06-06 07:10:00,
2013-06-06 00:20:00,59.3,53.8,29.94,NNW,336,0.0,2.0,82,0.00,,,0.00,Wunderground v.1.15,2013-06-06 07:20:00,
2013-06-06 00:30:00,59.2,53.7,29.94,NNW,336,0.0,0.0,82,0.00,,,0.00,Wunderground v.1.15,2013-06-06 07:30:00,
2013-06-06 00:40:00,59.0,53.5,29.94,NNW,336,0.0,1.0,82,0.00,,,0.00,Wunderground v.1.15,2013-06-06 07:40:00,
2013-06-06 00:50:00,58.9,53.7,29.93,NNW,336,0.0,0.0,83,0.00,,,0.00,Wunderground v.1.15,2013-06-06 07:50:00,
2013-06-06 01:00:00,58.6,53.5,29.93,NNW,336,1.0,2.0,83,0.00,,,0.00,Wunderground v.1.15,2013-06-06 08:00:00,
2013-06-06 01:10:00,58.4,53.3,29.93,NNW,336,0.0,4.0,83,0.00,,,0.00,Wunderground v.1.15,2013-06-06 08:10:00,
2013-06-06 01:20:00,58.1,53.0,29.92,NNW,336,0.0,3.0,83,0.00,,,0.00,Wunderground v.1.15,2013-06-06 08:20:00,
2013-06-06 01:30:00,58.1,53.3,29.92,NNW,336,0.0,1.0,84,0.00,,,0.00,Wunderground v.1.15,2013-06-06 08:30:00,
2013-06-06 01:40:00,58.0,53.2,29.92,NNW,336,0.0,2.0,84,0.00,,,0.00,Wunderground v.1.15,2013-06-06 08:40:00,
2013-06-06 01:50:00,57.8,53.0,29.92,NNW,336,0.0,0.0,84,0.00,,,0.00,Wunderground v.1.15,2013-06-06 08:50:00,
2013-06-06 02:00:00,57.8,53.0,29.92,NNW,336,0.0,0.0,84,0.00,,,0.00,Wunderground v.1.15,2013-06-06 09:00:00,
2013-06-06 02:10:00,58.1,53.6,29.92,NNW,336,1.0,1.0,85,0.00,,,0.00,Wunderground v.1.15,2013-06-06 09:10:00,
2013-06-06 02:20:00,58.3,53.8,29.92,NNW,336,1.0,3.0,85,0.00,,,0.00,Wunderground v.1.15,2013-06-06 09:20:00,
2013-06-06 02:30:00,58.3,53.8,29.92,NNW,336,1.0,1.0,85,0.00,,,0.00,Wunderground v.1.15,2013-06-06 09:30:00,
2013-06-06 02:40:00,58.4,54.2,29.92,NNW,336,1.0,3.0,86,0.00,,,0.00,Wunderground v.1.15,2013-06-06 09:40:00,
2013-06-06 02:50:00,58.7,54.5,29.92,NNW,336,1.0,1.0,86,0.00,,,0.00,Wunderground v.1.15,2013-06-06 09:50:00,
2013-06-06 03:00:00,58.7,54.5,29.92,NNW,336,2.0,2.0,86,0.00,,,0.00,Wunderground v.1.15,2013-06-06 10:00:00,
2013-06-06 03:10:00,58.9,54.7,29.92,NNW,336,1.0,1.0,86,0.00,,,0.00,Wunderground v.1.15,2013-06-06 10:10:00,
2013-06-06 03:20:00,59.0,54.8,29.92,NNW,336,1.0,4.0,86,0.00,,,0.00,Wunderground v.1.15,2013-06-06 10:20:00,
2013-06-06 03:30:00,59.0,54.5,29.92,NNW,336,1.0,4.0,85,0.00,,,0.00,Wunderground v.1.15,2013-06-06 10:30:00,
2013-06-06 03:40:00,59.2,54.7,29.92,NNW,334,2.0,5.0,85,0.00,,,0.00,Wunderground v.1.15,2013-06-06 10:40:00,
2013-06-06 03:50:00,59.2,54.7,29.92,NNW,334,2.0,2.0,85,0.00,,,0.00,Wunderground v.1.15,2013-06-06 10:50:00,
2013-06-06 04:00:00,59.2,54.7,29.91,NNW,334,1.0,4.0,85,0.00,,,0.00,Wunderground v.1.15,2013-06-06 11:00:00,
2013-06-06 04:10:00,58.9,54.4,29.91,NNW,334,1.0,5.0,85,0.00,,,0.00,Wunderground v.1.15,2013-06-06 11:10:00,
2013-06-06 04:20:00,58.9,54.1,29.91,NNW,334,1.0,1.0,84,0.00,,,0.00,Wunderground v.1.15,2013-06-06 11:20:00,
2013-06-06 04:30:00,58.9,54.1,29.91,NNW,334,2.0,5.0,84,0.00,,,0.00,Wunderground v.1.15,2013-06-06 11:30:00,
2013-06-06 04:40:00,58.9,54.1,29.91,NNW,334,2.0,5.0,84,0.00,,,0.00,Wunderground v.1.15,2013-06-06 11:40:00,
2013-06-06 04:50:00,58.7,53.9,29.91,NNW,334,2.0,5.0,84,0.00,,,0.00,Wunderground v.1.15,2013-06-06 11:50:00,
2013-06-06 05:00:00,58.7,53.9,29.91,NNW,331,3.0,3.0,84,0.00,,,0.00,Wunderground v.1.15,2013-06-06 12:00:00,
2013-06-06 05:10:00,58.7,53.9,29.91,NNW,331,2.0,2.0,84,0.00,,,0.00,Wunderground v.1.15,2013-06-06 12:10:00,
2013-06-06 05:20:00,58.7,53.9,29.91,NNW,331,0.0,5.0,84,0.00,,,0.00,Wunderground v.1.15,2013-06-06 12:20:00,
2013-06-06 05:30:00,58.7,53.9,29.91,NNW,332,1.0,1.0,84,0.00,,,0.00,Wunderground v.1.15,2013-06-06 12:30:00,
2013-06-06 05:40:00,58.7,53.9,29.91,NNW,332,0.0,4.0,84,0.00,,,0.00,Wunderground v.1.15,2013-06-06 12:40:00,
2013-06-06 05:50:00,58.7,53.5,29.91,NNW,331,1.0,3.0,83,0.00,,,0.00,Wunderground v.1.15,2013-06-06 12:50:00,
2013-06-06 06:00:00,58.6,53.5,29.91,NNW,332,2.0,4.0,83,0.00,,,0.00,Wunderground v.1.15,2013-06-06 13:00:00,
2013-06-06 06:10:00,58.6,53.5,29.91,NNW,331,2.0,2.0,83,0.00,,,0.00,Wunderground v.1.15,2013-06-06 13:10:00,
2013-06-06 06:20:00,58.6,53.8,29.91,NNW,332,0.0,4.0,84,0.00,,,0.00,Wunderground v.1.15,2013-06-06 13:20:00,
2013-06-06 06:30:00,58.7,53.9,29.91,NNW,331,0.0,2.0,84,0.00,,,0.00,Wunderground v.1.15,2013-06-06 13:30:00,
2013-06-06 06:40:00,59.0,53.8,29.91,NNW,332,2.0,2.0,83,0.00,,,0.00,Wunderground v.1.15,2013-06-06 13:40:00,
2013-06-06 06:50:00,59.0,53.8,29.92,NNW,332,1.0,3.0,83,0.00,,,0.00,Wunderground v.1.15,2013-06-06 13:50:00,
2013-06-06 07:00:00,58.9,53.7,29.92,NNW,333,1.0,1.0,83,0.00,,,0.00,Wunderground v.1.15,2013-06-06 14:00:00,
2013-06-06 07:10:00,58.9,53.7,29.92,NNW,334,1.0,5.0,83,0.00,,,0.00,Wunderground v.1.15,2013-06-06 14:10:00,
2013-06-06 07:20:00,58.9,53.7,29.93,NNW,334,0.0,5.0,83,0.00,,,0.00,Wunderground v.1.15,2013-06-06 14:20:00,
2013-06-06 07:30:00,59.2,54.0,29.93,NNW,334,1.0,3.0,83,0.00,,,0.00,Wunderground v.1.15,2013-06-06 14:30:00,
2013-06-06 07:40:00,59.3,54.1,29.93,NNW,334,0.0,3.0,83,0.00,,,0.00,Wunderground v.1.15,2013-06-06 14:40:00,
2013-06-06 07:50:00,59.5,54.3,29.94,NNW,334,0.0,3.0,83,0.00,,,0.00,Wunderground v.1.15,2013-06-06 14:50:00,
2013-06-06 08:00:00,59.5,54.3,29.94,NNW,334,1.0,1.0,83,0.00,,,0.00,Wunderground v.1.15,2013-06-06 15:00:00,
2013-06-06 08:10:00,59.6,54.1,29.94,NNW,334,1.0,1.0,82,0.00,,,0.00,Wunderground v.1.15,2013-06-06 15:10:00,
2013-06-06 08:20:00,59.9,54.4,29.94,North,355,0.0,3.0,82,0.00,,,0.00,Wunderground v.1.15,2013-06-06 15:20:00,
2013-06-06 08:30:00,60.2,54.7,29.95,North,355,1.0,3.0,82,0.00,,,0.00,Wunderground v.1.15,2013-06-06 15:30:00,
2013-06-06 08:40:00,60.2,54.7,29.95,West,272,4.0,4.0,82,0.00,,,0.00,Wunderground v.1.15,2013-06-06 15:40:00,
2013-06-06 08:50:00,60.4,54.9,29.95,SW,232,3.0,10.0,82,0.00,,,0.00,Wunderground v.1.15,2013-06-06 15:50:00,
2013-06-06 09:00:00,60.2,54.7,29.95,West,260,3.0,7.0,82,0.00,,,0.00,Wunderground v.1.15,2013-06-06 16:00:00,
2013-06-06 09:10:00,60.2,54.7,29.95,West,266,4.0,4.0,82,0.00,,,0.00,Wunderground v.1.15,2013-06-06 16:10:00,
2013-06-06 09:20:00,60.4,54.9,29.95,WNW,284,4.0,4.0,82,0.00,,,0.00,Wunderground v.1.15,2013-06-06 16:20:00,
2013-06-06 09:30:00,60.5,55.0,29.95,West,269,4.0,8.0,82,0.00,,,0.00,Wunderground v.1.15,2013-06-06 16:30:00,
2013-06-06 09:40:00,60.7,55.2,29.95,West,278,3.0,3.0,82,0.00,,,0.00,Wunderground v.1.15,2013-06-06 16:40:00,
2013-06-06 09:50:00,60.9,55.0,29.95,West,269,3.0,7.0,81,0.00,,,0.00,Wunderground v.1.15,2013-06-06 16:50:00,
2013-06-06 10:00:00,61.2,55.0,29.95,West,269,4.0,4.0,80,0.00,,,0.00,Wunderground v.1.15,2013-06-06 17:00:00,
2013-06-06 10:10:00,61.3,55.1,29.95,West,281,4.0,9.0,80,0.00,,,0.00,Wunderground v.1.15,2013-06-06 17:10:00,
2013-06-06 10:20:00,61.8,55.2,29.95,West,273,4.0,11.0,79,0.00,,,0.00,Wunderground v.1.15,2013-06-06 17:20:00,
2013-06-06 10:30:00,62.1,55.5,29.95,West,273,3.0,3.0,79,0.00,,,0.00,Wunderground v.1.15,2013-06-06 17:30:00,
2013-06-06 10:40:00,62.4,55.4,29.95,WSW,251,3.0,7.0,78,0.00,,,0.00,Wunderground v.1.15,2013-06-06 17:40:00,
2013-06-06 10:50:00,62.4,55.4,29.95,WSW,252,3.0,3.0,78,0.00,,,0.00,Wunderground v.1.15,2013-06-06 17:50:00,
2013-06-06 11:00:00,62.7,55.4,29.95,SW,236,3.0,7.0,77,0.00,,,0.00,Wunderground v.1.15,2013-06-06 18:00:00,
2013-06-06 11:10:00,62.9,55.6,29.95,SW,226,4.0,4.0,77,0.00,,,0.00,Wunderground v.1.15,2013-06-06 18:10:00,
2013-06-06 11:20:00,63.5,55.8,29.96,SW,226,4.0,10.0,76,0.00,,,0.00,Wunderground v.1.15,2013-06-06 18:20:00,
2013-06-06 11:30:00,63.9,55.8,29.95,SW,219,4.0,4.0,75,0.00,,,0.00,Wunderground v.1.15,2013-06-06 18:30:00,
2013-06-06 11:40:00,64.2,55.7,29.95,SW,228,6.0,6.0,74,0.00,,,0.00,Wunderground v.1.15,2013-06-06 18:40:00,
2013-06-06 11:50:00,64.3,55.8,29.96,SSW,213,7.0,13.0,74,0.00,,,0.00,Wunderground v.1.15,2013-06-06 18:50:00,
2013-06-06 12:00:00,64.7,55.5,29.96,SW,215,8.0,8.0,72,0.00,,,0.00,Wunderground v.1.15,2013-06-06 19:00:00,
2013-06-06 12:10:00,64.8,55.6,29.96,WSW,246,6.0,6.0,72,0.00,,,0.00,Wunderground v.1.15,2013-06-06 19:10:00,
2013-06-06 12:20:00,65.6,55.9,29.96,SW,230,6.0,11.0,71,0.00,,,0.00,Wunderground v.1.15,2013-06-06 19:20:00,
2013-06-06 12:30:00,65.2,55.9,29.95,West,261,6.0,12.0,72,0.00,,,0.00,Wunderground v.1.15,2013-06-06 19:30:00,
2013-06-06 12:40:00,65.8,56.1,29.95,West,261,5.0,12.0,71,0.00,,,0.00,Wunderground v.1.15,2013-06-06 19:40:00,
2013-06-06 12:50:00,65.8,56.1,29.95,West,259,5.0,11.0,71,0.00,,,0.00,Wunderground v.1.15,2013-06-06 19:50:00,
2013-06-06 13:00:00,66.1,55.6,29.95,SSW,198,5.0,11.0,69,0.00,,,0.00,Wunderground v.1.15,2013-06-06 20:00:00,
2013-06-06 13:10:00,66.0,55.9,29.95,WSW,254,5.0,12.0,70,0.00,,,0.00,Wunderground v.1.15,2013-06-06 20:10:00,
2013-06-06 13:20:00,66.4,55.9,29.94,SW,227,6.0,12.0,69,0.00,,,0.00,Wunderground v.1.15,2013-06-06 20:20:00,
2013-06-06 13:30:00,66.6,56.5,29.94,West,260,6.0,12.0,70,0.00,,,0.00,Wunderground v.1.15,2013-06-06 20:30:00,
2013-06-06 13:40:00,66.9,56.4,29.94,WSW,248,6.0,6.0,69,0.00,,,0.00,Wunderground v.1.15,2013-06-06 20:40:00,
2013-06-06 13:50:00,67.3,56.8,29.94,WSW,241,6.0,11.0,69,0.00,,,0.00,Wunderground v.1.15,2013-06-06 20:50:00,
2013-06-06 14:00:00,67.8,56.9,29.94,SW,221,5.0,12.0,68,0.00,,,0.00,Wunderground v.1.15,2013-06-06 21:00:00,
2013-06-06 14:10:00,67.9,56.5,29.94,SW,234,6.0,6.0,67,0.00,,,0.00,Wunderground v.1.15,2013-06-06 21:10:00,
2013-06-06 14:20:00,68.3,56.5,29.94,WSW,240,6.0,6.0,66,0.00,,,0.00,Wunderground v.1.15,2013-06-06 21:20:00,
2013-06-06 14:30:00,68.4,56.2,29.93,WNW,286,6.0,11.0,65,0.00,,,0.00,Wunderground v.1.15,2013-06-06 21:30:00,
2013-06-06 14:40:00,67.9,56.1,29.93,WNW,286,6.0,6.0,66,0.00,,,0.00,Wunderground v.1.15,2013-06-06 21:40:00,
2013-06-06 14:50:00,68.3,55.6,29.93,SW,235,6.0,6.0,64,0.00,,,0.00,Wunderground v.1.15,2013-06-06 21:50:00,
2013-06-06 15:00:00,68.1,55.9,29.92,SW,220,6.0,15.0,65,0.00,,,0.00,Wunderground v.1.15,2013-06-06 22:00:00,
2013-06-06 15:10:00,67.3,55.1,29.92,SSW,213,8.0,15.0,65,0.00,,,0.00,Wunderground v.1.15,2013-06-06 22:10:00,
2013-06-06 15:20:00,67.9,55.7,29.92,SW,227,7.0,17.0,65,0.00,,,0.00,Wunderground v.1.15,2013-06-06 22:20:00,
2013-06-06 15:30:00,67.9,55.7,29.92,SW,226,7.0,7.0,65,0.00,,,0.00,Wunderground v.1.15,2013-06-06 22:30:00,
2013-06-06 15:40:00,67.1,55.4,29.92,West,278,7.0,14.0,66,0.00,,,0.00,Wunderground v.1.15,2013-06-06 22:40:00,
2013-06-06 15:50:00,66.8,55.5,29.91,WSW,248,7.0,7.0,67,0.00,,,0.00,Wunderground v.1.15,2013-06-06 22:50:00,
2013-06-06 16:00:00,66.8,55.1,29.91,SW,232,7.0,14.0,66,0.00,,,0.00,Wunderground v.1.15,2013-06-06 23:00:00,
2013-06-06 16:10:00,66.6,55.3,29.91,WSW,240,8.0,8.0,67,0.00,,,0.00,Wunderground v.1.15,2013-06-06 23:10:00,
2013-06-06 16:20:00,66.3,55.0,29.91,WSW,258,8.0,8.0,67,0.00,,,0.00,Wunderground v.1.15,2013-06-06 23:20:00,
2013-06-06 16:30:00,66.4,55.1,29.90,WSW,250,6.0,15.0,67,0.00,,,0.00,Wunderground v.1.15,2013-06-06 23:30:00,
2013-06-06 16:40:00,66.0,55.1,29.90,West,277,8.0,8.0,68,0.00,,,0.00,Wunderground v.1.15,2013-06-06 23:40:00,
2013-06-06 16:50:00,65.8,54.9,29.90,West,276,7.0,7.0,68,0.00,,,0.00,Wunderground v.1.15,2013-06-06 23:50:00,
2013-06-06 17:00:00,66.0,55.5,29.90,WNW,303,6.0,12.0,69,0.00,,,0.00,Wunderground v.1.15,2013-06-07 00:00:00,
2013-06-06 17:10:00,65.5,55.5,29.90,WSW,244,7.0,7.0,70,0.00,,,0.00,Wunderground v.1.15,2013-06-07 00:10:00,
2013-06-06 17:20:00,65.5,55.1,29.89,NW,315,7.0,7.0,69,0.00,,,0.00,Wunderground v.1.15,2013-06-07 00:20:00,
2013-06-06 17:30:00,64.5,55.3,29.90,SW,221,5.0,5.0,72,0.00,,,0.00,Wunderground v.1.15,2013-06-07 00:30:00,
2013-06-06 17:40:00,63.9,55.4,29.90,West,263,6.0,13.0,74,0.00,,,0.00,Wunderground v.1.15,2013-06-07 00:40:00,
2013-06-06 17:50:00,63.4,55.3,29.90,West,278,6.0,14.0,75,0.00,,,0.00,Wunderground v.1.15,2013-06-07 00:50:00,
2013-06-06 18:00:00,63.1,55.0,29.90,West,265,7.0,7.0,75,0.00,,,0.00,Wunderground v.1.15,2013-06-07 01:00:00,
2013-06-06 18:10:00,62.4,54.7,29.90,West,265,8.0,8.0,76,0.00,,,0.00,Wunderground v.1.15,2013-06-07 01:10:00,
2013-06-06 18:20:00,62.1,54.8,29.90,WNW,299,6.0,14.0,77,0.00,,,0.00,Wunderground v.1.15,2013-06-07 01:20:00,
2013-06-06 18:30:00,61.8,54.5,29.90,West,265,7.0,11.0,77,0.00,,,0.00,Wunderground v.1.15,2013-06-07 01:30:00,
2013-06-06 18:40:00,61.8,54.5,29.90,WSW,238,7.0,13.0,77,0.00,,,0.00,Wunderground v.1.15,2013-06-07 01:40:00,
2013-06-06 18:50:00,61.6,54.7,29.90,WNW,295,6.0,6.0,78,0.00,,,0.00,Wunderground v.1.15,2013-06-07 01:50:00,
2013-06-06 19:00:00,61.5,54.9,29.90,NNW,328,4.0,13.0,79,0.00,,,0.00,Wunderground v.1.15,2013-06-07 02:00:00,
2013-06-06 19:10:00,61.3,54.7,29.90,WSW,251,5.0,5.0,79,0.00,,,0.00,Wunderground v.1.15,2013-06-07 02:10:00,
2013-06-06 19:20:00,61.3,55.1,29.90,West,265,5.0,12.0,80,0.00,,,0.00,Wunderground v.1.15,2013-06-07 02:20:00,
2013-06-06 19:30:00,61.2,55.0,29.90,WNW,289,3.0,3.0,80,0.00,,,0.00,Wunderground v.1.15,2013-06-07 02:30:00,
2013-06-06 19:40:00,61.0,54.8,29.90,WNW,297,4.0,4.0,80,0.00,,,0.00,Wunderground v.1.15,2013-06-07 02:40:00,
2013-06-06 19:50:00,60.9,54.7,29.90,WNW,286,5.0,11.0,80,0.00,,,0.00,Wunderground v.1.15,2013-06-07 02:50:00,
2013-06-06 20:00:00,60.9,54.7,29.90,WNW,297,4.0,10.0,80,0.00,,,0.00,Wunderground v.1.15,2013-06-07 03:00:00,
2013-06-06 20:10:00,60.7,54.5,29.90,WNW,295,5.0,5.0,80,0.00,,,0.00,Wunderground v.1.15,2013-06-07 03:10:00,
2013-06-06 20:20:00,60.5,54.6,29.91,WSW,248,4.0,10.0,81,0.00,,,0.00,Wunderground v.1.15,2013-06-07 03:20:00,
2013-06-06 20:30:00,60.4,54.5,29.91,West,275,4.0,4.0,81,0.00,,,0.00,Wunderground v.1.15,2013-06-07 03:30:00,
2013-06-06 20:40:00,60.4,54.5,29.91,NW,309,4.0,4.0,81,0.00,,,0.00,Wunderground v.1.15,2013-06-07 03:40:00,
2013-06-06 20:50:00,60.2,54.3,29.91,WSW,254,4.0,4.0,81,0.00,,,0.00,Wunderground v.1.15,2013-06-07 03:50:00,
2013-06-06 21:00:00,60.2,54.7,29.91,West,272,4.0,8.0,82,0.00,,,0.00,Wunderground v.1.15,2013-06-07 04:00:00,
2013-06-06 21:10:00,60.2,54.7,29.91,West,267,4.0,10.0,82,0.00,,,0.00,Wunderground v.1.15,2013-06-07 04:10:00,
2013-06-06 21:20:00,60.1,54.6,29.92,West,265,4.0,4.0,82,0.00,,,0.00,Wunderground v.1.15,2013-06-07 04:20:00,
2013-06-06 21:30:00,59.9,54.4,29.92,WNW,294,4.0,10.0,82,0.00,,,0.00,Wunderground v.1.15,2013-06-07 04:30:00,
2013-06-06 21:40:00,59.9,54.7,29.92,West,269,4.0,4.0,83,0.00,,,0.00,Wunderground v.1.15,2013-06-07 04:40:00,
2013-06-06 21:50:00,59.8,54.6,29.92,West,275,3.0,3.0,83,0.00,,,0.00,Wunderground v.1.15,2013-06-07 04:50:00,
2013-06-06 22:00:00,59.9,54.7,29.92,West,274,3.0,3.0,83,0.00,,,0.00,Wunderground v.1.15,2013-06-07 05:00:00,
2013-06-06 22:10:00,59.9,54.7,29.92,West,274,2.0,7.0,83,0.00,,,0.00,Wunderground v.1.15,2013-06-07 05:10:00,
2013-06-06 22:20:00,59.9,54.7,29.92,West,274,1.0,1.0,83,0.00,,,0.00,Wunderground v.1.15,2013-06-07 05:20:00,
2013-06-06 22:30:00,59.9,54.7,29.92,West,273,2.0,4.0,83,0.00,,,0.00,Wunderground v.1.15,2013-06-07 05:30:00,
2013-06-06 22:40:00,60.1,54.9,29.92,West,273,1.0,6.0,83,0.00,,,0.00,Wunderground v.1.15,2013-06-07 05:40:00,
2013-06-06 22:50:00,60.1,54.9,29.92,West,273,3.0,4.0,83,0.00,,,0.00,Wunderground v.1.15,2013-06-07 05:50:00,
2013-06-06 23:00:00,59.9,54.7,29.92,West,262,3.0,3.0,83,0.00,,,0.00,Wunderground v.1.15,2013-06-07 06:00:00,
2013-06-06 23:10:00,59.9,54.7,29.92,West,272,2.0,6.0,83,0.00,,,0.00,Wunderground v.1.15,2013-06-07 06:10:00,
2013-06-06 23:20:00,60.1,54.9,29.92,West,273,3.0,7.0,83,0.00,,,0.00,Wunderground v.1.15,2013-06-07 06:20:00,
2013-06-06 23:30:00,60.1,54.9,29.92,West,276,3.0,3.0,83,0.00,,,0.00,Wunderground v.1.15,2013-06-07 06:30:00,
2013-06-06 23:40:00,60.2,55.0,29.92,West,276,1.0,6.0,83,0.00,,,0.00,Wunderground v.1.15,2013-06-07 06:40:00,
2013-06-06 23:50:00,60.1,54.6,29.91,West,275,2.0,5.0,82,0.00,,,0.00,Wunderground v.1.15,2013-06-07 06:50:00,